BOIT2: Bois D' Arc Ck at FM 1396 nr Honey Grove, Tx

Data processed at Wed May 22 2019 23:50


All information presented herein is the property of the government of the United States of America and may be revised or deleted at any time without prior notice.
Dissemination of this information without the expressed written consent of the Public Affairs Office, Tulsa District U.S. Army Corps of Engineers is strictly prohibited.
These data are gathered electronically and, as presented, have not undergone any form of quality control. These data are not guaranteed to be valid or correct.
Go to home page.
Go to station list.
Go to home page.

Downstream station:


Previous Day
Next Day
Current Day
    
SHEF ID:       BOIT2     Bois D'Arc Ck at FM 1396 nr Hone
STATION TYPE:  

                STAGE  RIV-FLOW  WTR-TEMP   DIS-OXY        PH   CONDUCT
                   ft       cfs         F      mg/l        su   umho/cm
              Ccp-Rev   Ccp-Rev   Ccp-Rev   Ccp-Rev   Ccp-Rev   Ccp-Rev
(US/Central)
05/22 00:00     72.81       428     72.68      7.45      7.84       290
05/22 01:00     72.75       418     72.32      7.68      7.84       290
05/22 02:00     72.71       411     71.96      7.34      7.83       291
05/22 03:00     72.64       399     71.60      7.48      7.83       293
05/22 04:00     72.59       391     71.24      7.57      7.83       294
05/22 05:00     72.58       389     70.88      7.62      7.83       296
05/22 06:00     72.53       381     70.52      7.83      7.83       298
05/22 07:00     72.48       373     70.16      7.64      7.83       300
05/22 08:00     72.46       370     70.16      8.30      7.84       302
05/22 09:00     72.44       367     70.16      7.66      7.85       304
05/22 10:00     72.42       364     70.52      7.75      7.86       306
05/22 11:00     72.40       360     71.06      7.76      7.87       310
05/22 12:00     72.39       359     71.42      7.68      7.88       312
05/22 13:00     72.37       356     72.14      7.70      7.87       315
05/22 14:00     72.36       354     73.22      8.24      7.89       318
05/22 15:00     72.33       349     74.30      7.64      7.90       321
05/22 16:00     72.32       348     75.20      7.64      7.90       324
05/22 17:00     72.29       343     75.92      7.48      7.91       328
05/22 18:00     72.27       340     76.46      8.31      7.91       330
05/22 19:00     72.25       337     76.64      7.39      7.92       333
05/22 20:00     72.23       334     76.64      7.27      7.92       335
05/22 21:00     72.21       331     76.64      7.17      7.92       337
05/22 22:00     72.18       326     76.46      7.24      7.92       339
05/22 23:00      ----      ----      ----      ----      ----      ----